createdAt,value
2022-12-23T00:00:16.106Z,19.4
2022-12-23T00:05:16.329Z,19.4
2022-12-23T00:10:14.152Z,19.3
2022-12-23T00:15:15.120Z,19.3
2022-12-23T00:20:20.035Z,19.3
2022-12-23T00:25:17.853Z,19.3
2022-12-23T00:30:13.696Z,19.3
2022-12-23T00:35:14.441Z,19.2
2022-12-23T00:40:24.446Z,19.2
2022-12-23T00:45:14.424Z,19.2
2022-12-23T00:50:20.795Z,19.2
2022-12-23T00:55:17.527Z,19.1
2022-12-23T01:00:21.489Z,19.1
2022-12-23T01:05:20.659Z,19.1
2022-12-23T01:10:22.455Z,19.1
2022-12-23T01:15:26.401Z,19.1
2022-12-23T01:20:23.685Z,19.1
2022-12-23T01:25:20.527Z,19
2022-12-23T01:30:14.273Z,19
2022-12-23T01:35:16.371Z,19
2022-12-23T01:40:20.225Z,19
2022-12-23T01:45:18.193Z,19
2022-12-23T01:50:22.051Z,19
2022-12-23T01:55:19.845Z,19
2022-12-23T02:00:21.883Z,18.9
2022-12-23T02:05:26.250Z,18.9
2022-12-23T02:10:16.474Z,18.9
2022-12-23T02:15:18.330Z,18.9
2022-12-23T02:20:18.298Z,18.9
2022-12-23T02:25:20.092Z,18.8
2022-12-23T02:30:19.985Z,18.8
2022-12-23T02:35:13.906Z,18.8
2022-12-23T02:40:19.732Z,18.8
2022-12-23T02:45:17.789Z,18.8
2022-12-23T02:50:13.598Z,18.8
2022-12-23T02:55:16.557Z,18.8
2022-12-23T03:00:18.463Z,18.8
2022-12-23T03:05:14.345Z,18.7
2022-12-23T03:10:19.696Z,18.7
2022-12-23T03:15:16.659Z,18.7
2022-12-23T03:20:22.514Z,18.7
2022-12-23T03:25:16.351Z,18.7
2022-12-23T03:30:18.197Z,18.7
2022-12-23T03:35:14.031Z,18.7
2022-12-23T03:40:13.822Z,18.7
2022-12-23T03:45:55.022Z,18.7
2022-12-23T03:50:14.023Z,18.6
2022-12-23T03:55:19.778Z,18.6
2022-12-23T04:00:21.897Z,18.6
2022-12-23T04:05:19.840Z,18.6
2022-12-23T04:10:15.733Z,18.6
2022-12-23T04:15:27.027Z,18.6
2022-12-23T04:20:18.265Z,18.6
2022-12-23T04:25:20.017Z,18.6
2022-12-23T04:30:17.910Z,18.6
2022-12-23T04:35:15.653Z,18.6
2022-12-23T04:40:16.422Z,18.6
2022-12-23T04:45:14.876Z,18.5
2022-12-23T04:50:17.660Z,18.5
2022-12-23T04:55:16.433Z,18.5
2022-12-23T05:00:20.305Z,18.5
2022-12-23T05:05:16.133Z,18.6
2022-12-23T05:10:14.280Z,18.6
2022-12-23T05:15:16.249Z,18.6
2022-12-23T05:20:22.255Z,18.6
2022-12-23T05:25:16.215Z,18.7
2022-12-23T05:30:22.410Z,18.8
2022-12-23T05:35:24.221Z,18.9
2022-12-23T05:40:21.725Z,18.9
2022-12-23T05:45:15.870Z,19
2022-12-23T05:50:13.664Z,19
2022-12-23T05:55:16.333Z,19
2022-12-23T06:00:18.236Z,19.1
2022-12-23T06:05:25.768Z,19.1
2022-12-23T06:10:20.125Z,19.1
2022-12-23T06:15:16.205Z,19.2
2022-12-23T06:20:20.152Z,19.2
2022-12-23T06:25:14.157Z,19.2
2022-12-23T06:30:14.009Z,19.2
2022-12-23T06:35:13.707Z,19.2
2022-12-23T06:40:18.581Z,19.2
2022-12-23T06:45:14.491Z,19.3
2022-12-23T06:50:18.427Z,19.3
2022-12-23T06:55:14.281Z,19.3
2022-12-23T07:00:18.101Z,19.3
2022-12-23T07:05:22.006Z,19.3
2022-12-23T07:10:17.966Z,19.3
2022-12-23T07:15:14.051Z,19.3
2022-12-23T07:20:22.012Z,19.3
2022-12-23T07:25:13.874Z,19.3
2022-12-23T07:30:13.743Z,19.3
2022-12-23T07:35:15.517Z,19.4
2022-12-23T07:40:22.450Z,19.5
2022-12-23T07:45:18.571Z,19.6
2022-12-23T07:50:24.373Z,19.6
2022-12-23T07:55:14.183Z,19.6
2022-12-23T08:00:16.024Z,19.6
2022-12-23T08:05:14.541Z,19.6
2022-12-23T08:10:19.488Z,19.6
2022-12-23T08:15:16.325Z,19.7
2022-12-23T08:20:22.193Z,19.7
2022-12-23T08:25:18.039Z,19.7
2022-12-23T08:30:22.008Z,19.7
2022-12-23T08:35:13.881Z,19.8
2022-12-23T08:40:19.598Z,19.8
2022-12-23T08:45:14.687Z,19.8
2022-12-23T08:50:15.636Z,19.7
2022-12-23T08:55:24.470Z,19.7
2022-12-23T09:00:18.494Z,19.7
2022-12-23T09:05:19.595Z,19.7
2022-12-23T09:10:24.597Z,19.7
2022-12-23T09:15:14.498Z,19.8
2022-12-23T09:20:30.557Z,19.8
2022-12-23T09:25:18.995Z,19.9
2022-12-23T09:30:15.789Z,19.9
2022-12-23T09:35:23.506Z,19.8
2022-12-23T09:40:18.407Z,19.8
2022-12-23T09:45:20.252Z,20
2022-12-23T09:50:14.086Z,20
2022-12-23T09:55:21.895Z,20
2022-12-23T10:00:21.948Z,20
2022-12-23T10:05:14.375Z,20
2022-12-23T10:10:16.183Z,20
2022-12-23T10:15:16.195Z,20
2022-12-23T10:20:16.202Z,20
2022-12-23T10:25:21.928Z,19.9
2022-12-23T10:32:00.520Z,19.9
2022-12-23T10:35:14.494Z,20
2022-12-23T10:40:14.528Z,20
2022-12-23T10:45:14.381Z,19.9
2022-12-23T10:50:18.382Z,19.9
2022-12-23T10:55:27.290Z,19.9
2022-12-23T11:00:15.758Z,19.9
2022-12-23T11:05:16.521Z,19.9
2022-12-23T11:10:14.444Z,19.9
2022-12-23T11:15:17.108Z,19.9
2022-12-23T11:20:18.640Z,19.9
2022-12-23T11:25:14.518Z,19.9
2022-12-23T11:30:22.565Z,19.9
2022-12-23T11:35:16.798Z,19.9
2022-12-23T11:40:15.921Z,19.9
2022-12-23T11:45:17.818Z,19.9
2022-12-23T11:50:17.743Z,19.9
2022-12-23T11:55:14.802Z,19.9
2022-12-23T12:00:17.736Z,19.9
2022-12-23T12:05:22.514Z,19.8
2022-12-23T12:10:16.356Z,19.9
2022-12-23T12:15:16.321Z,19.9
2022-12-23T12:20:20.157Z,19.9
2022-12-23T12:25:13.881Z,19.9
2022-12-23T12:30:20.277Z,19.9
2022-12-23T12:35:24.423Z,19.9
2022-12-23T12:40:14.231Z,19.9
2022-12-23T12:45:16.190Z,19.9
2022-12-23T12:50:16.128Z,19.9
2022-12-23T12:55:18.113Z,19.9
2022-12-23T13:00:22.381Z,19.9
2022-12-23T13:05:20.061Z,19.9
2022-12-23T13:10:19.773Z,19.9
2022-12-23T13:15:17.790Z,20
2022-12-23T13:20:17.866Z,20
2022-12-23T13:25:15.813Z,20
2022-12-23T13:30:17.707Z,20
2022-12-23T13:35:21.741Z,20
2022-12-23T13:40:19.567Z,20
2022-12-23T13:45:14.427Z,20
2022-12-23T13:50:18.300Z,20
2022-12-23T13:55:14.153Z,20
2022-12-23T14:00:19.864Z,19.9
2022-12-23T14:05:18.320Z,19.9
2022-12-23T14:10:18.091Z,19.9
2022-12-23T14:15:15.988Z,19.9
2022-12-23T14:20:17.920Z,20
2022-12-23T14:25:17.779Z,20
2022-12-23T14:30:17.943Z,20
2022-12-23T14:35:19.841Z,19.9
2022-12-23T14:40:17.630Z,19.9
2022-12-23T14:45:14.504Z,19.9
2022-12-23T14:50:18.779Z,19.9
2022-12-23T14:55:54.172Z,19.9
2022-12-23T15:00:16.793Z,19.9
2022-12-23T15:05:15.648Z,19.9
2022-12-23T15:10:14.428Z,19.9
2022-12-23T15:15:20.324Z,20
2022-12-23T15:20:16.237Z,19.9
2022-12-23T15:25:20.189Z,20
2022-12-23T15:30:20.489Z,20
2022-12-23T15:35:16.337Z,20
2022-12-23T15:40:29.285Z,20
2022-12-23T15:45:14.165Z,20
2022-12-23T15:50:18.223Z,20
2022-12-23T15:55:19.975Z,20.1
2022-12-23T16:00:17.872Z,20
2022-12-23T16:05:13.795Z,20.1
2022-12-23T16:10:13.764Z,20.1
2022-12-23T16:15:17.811Z,20.1
2022-12-23T16:20:17.675Z,20.1
2022-12-23T16:25:16.437Z,20.1
2022-12-23T16:30:16.438Z,20.1
2022-12-23T16:35:22.243Z,20.1
2022-12-23T16:40:16.116Z,20.1
2022-12-23T16:45:13.964Z,20.1
2022-12-23T16:50:13.788Z,20.1
2022-12-23T16:55:27.687Z,20.1
2022-12-23T17:00:16.224Z,20.1
2022-12-23T17:05:16.120Z,20.2
2022-12-23T17:10:13.829Z,20.2
2022-12-23T17:15:19.813Z,20.3
2022-12-23T17:20:19.783Z,20.3
2022-12-23T17:25:26.397Z,20.3
2022-12-23T17:30:15.972Z,20.4
2022-12-23T17:35:17.959Z,20.5
2022-12-23T17:40:21.850Z,20.5
2022-12-23T17:45:17.844Z,20.6
2022-12-23T17:50:17.593Z,20.6
2022-12-23T17:55:20.495Z,20.6
2022-12-23T18:00:25.290Z,20.6
2022-12-23T18:05:15.702Z,20.6
2022-12-23T18:10:14.515Z,20.6
2022-12-23T18:15:14.849Z,20.6
2022-12-23T18:20:13.677Z,20.7
2022-12-23T18:25:18.422Z,20.7
2022-12-23T18:30:16.421Z,20.7
2022-12-23T18:35:18.266Z,20.7
2022-12-23T18:40:16.118Z,20.8
2022-12-23T18:45:15.960Z,20.8
2022-12-23T18:50:13.909Z,20.8
2022-12-23T18:55:13.703Z,20.8
2022-12-23T19:00:16.535Z,20.9
2022-12-23T19:05:14.276Z,20.9
2022-12-23T19:10:18.000Z,21
2022-12-23T19:15:13.969Z,21
2022-12-23T19:20:13.776Z,21.1
2022-12-23T19:25:22.183Z,21.1
2022-12-23T19:30:18.198Z,21
2022-12-23T19:35:16.095Z,21.1
2022-12-23T19:40:19.918Z,21.1
2022-12-23T19:45:13.721Z,21.1
2022-12-23T19:50:16.537Z,21
2022-12-23T19:55:18.564Z,21.1
2022-12-23T20:00:22.595Z,21.2
2022-12-23T20:05:26.494Z,21.2
2022-12-23T20:10:15.828Z,21.2
2022-12-23T20:15:21.741Z,21.3
2022-12-23T20:20:15.533Z,21.3
2022-12-23T20:25:18.455Z,21.3
2022-12-23T20:30:14.377Z,21.3
2022-12-23T20:35:22.450Z,21.3
2022-12-23T20:40:18.260Z,21.3
2022-12-23T20:45:14.120Z,21.3
2022-12-23T20:50:15.887Z,21.3
2022-12-23T20:55:15.693Z,21.3
2022-12-23T21:00:16.515Z,21.3
2022-12-23T21:05:16.417Z,21.4
2022-12-23T21:10:20.203Z,21.3
2022-12-23T21:15:18.088Z,21.2
2022-12-23T21:20:23.385Z,21.3
2022-12-23T21:25:18.457Z,21.4
2022-12-23T21:30:16.830Z,21.3
2022-12-23T21:35:13.701Z,21.4
2022-12-23T21:40:24.553Z,21.4
2022-12-23T21:45:16.660Z,21.4
2022-12-23T21:50:18.543Z,21.3
2022-12-23T21:55:14.815Z,21.3
2022-12-23T22:00:13.816Z,21.3
2022-12-23T22:05:16.173Z,21.3
2022-12-23T22:10:20.298Z,21.3
2022-12-23T22:15:25.269Z,21.2
2022-12-23T22:20:14.134Z,21.2
2022-12-23T22:25:14.043Z,21.4
2022-12-23T22:30:18.302Z,21.4
2022-12-23T22:35:16.499Z,21.4
2022-12-23T22:40:14.531Z,21.4
2022-12-23T22:45:22.563Z,21.3
2022-12-23T22:50:14.468Z,21.2
2022-12-23T22:55:14.483Z,21.3
2022-12-23T23:00:28.287Z,21.2
2022-12-23T23:05:26.506Z,21.2
2022-12-23T23:10:13.602Z,21.1
2022-12-23T23:15:18.506Z,21.1
2022-12-23T23:20:26.489Z,21.1
2022-12-23T23:25:23.694Z,21.1
2022-12-23T23:30:16.589Z,21
2022-12-23T23:35:32.744Z,21
2022-12-23T23:40:13.500Z,21
2022-12-23T23:45:20.332Z,21
2022-12-23T23:50:26.354Z,21
2022-12-23T23:55:18.473Z,21
